createdAt,value
2023-09-08T00:00:49.942Z,12.30
2023-09-08T00:03:22.875Z,8.87
2023-09-08T00:05:51.843Z,9.87
2023-09-08T00:08:20.938Z,8.77
2023-09-08T00:10:53.750Z,10.73
2023-09-08T00:13:22.598Z,11.87
2023-09-08T00:15:51.364Z,10.57
2023-09-08T00:18:19.262Z,9.10
2023-09-08T00:20:47.221Z,10.83
2023-09-08T00:23:18.047Z,10.20
2023-09-08T00:25:45.876Z,9.53
2023-09-08T00:28:15.451Z,13.13
2023-09-08T00:30:43.964Z,8.67
2023-09-08T00:33:15.206Z,9.13
2023-09-08T00:35:49.481Z,13.10
2023-09-08T00:38:17.634Z,10.60
2023-09-08T00:40:46.602Z,9.80
2023-09-08T00:43:15.762Z,14.77
2023-09-08T00:45:45.634Z,11.67
2023-09-08T00:48:14.599Z,9.97
2023-09-08T00:50:43.531Z,10.67
2023-09-08T00:53:14.987Z,9.53
2023-09-08T00:55:43.366Z,9.33
2023-09-08T00:58:13.268Z,9.23
2023-09-08T01:00:42.670Z,11.33
2023-09-08T01:03:11.570Z,9.97
2023-09-08T01:05:42.484Z,8.37
2023-09-08T01:08:12.062Z,8.73
2023-09-08T01:10:42.294Z,10.63
2023-09-08T01:13:10.813Z,10.10
2023-09-08T01:15:38.755Z,9.37
2023-09-08T01:18:09.773Z,9.50
2023-09-08T01:20:50.919Z,11.60
2023-09-08T01:23:23.409Z,8.93
2023-09-08T01:26:00.152Z,9.23
2023-09-08T01:28:31.339Z,9.60
2023-09-08T01:31:01.924Z,10.13
2023-09-08T01:33:30.767Z,9.33
2023-09-08T01:36:00.956Z,11.10
2023-09-08T01:38:30.250Z,8.33
2023-09-08T01:40:59.898Z,12.43
2023-09-08T01:43:27.869Z,9.13
2023-09-08T01:46:00.075Z,9.77
2023-09-08T01:48:29.430Z,9.60
2023-09-08T01:50:58.913Z,9.37
2023-09-08T01:53:27.193Z,11.03
2023-09-08T01:55:55.487Z,12.20
2023-09-08T01:58:25.226Z,10.40
2023-09-08T02:00:53.699Z,8.40
2023-09-08T02:03:21.747Z,10.13
2023-09-08T02:05:49.813Z,10.43
2023-09-08T02:08:17.962Z,10.33
2023-09-08T02:10:45.820Z,11.17
2023-09-08T02:13:16.041Z,8.30
2023-09-08T02:15:46.195Z,13.47
2023-09-08T02:18:14.636Z,9.73
2023-09-08T02:20:44.057Z,8.40
2023-09-08T02:23:20.328Z,8.47
2023-09-08T02:25:49.222Z,14.53
2023-09-08T02:28:18.120Z,11.83
2023-09-08T02:30:48.842Z,12.93
2023-09-08T02:33:17.579Z,10.37
2023-09-08T02:35:50.007Z,10.30
2023-09-08T02:38:19.606Z,8.47
2023-09-08T02:40:49.594Z,10.83
2023-09-08T02:43:19.842Z,13.63
2023-09-08T02:45:50.837Z,11.90
2023-09-08T02:48:18.981Z,10.57
2023-09-08T02:50:48.349Z,11.37
2023-09-08T02:53:17.904Z,9.03
2023-09-08T02:55:48.724Z,10.30
2023-09-08T02:58:19.050Z,10.57
2023-09-08T03:00:47.184Z,10.63
2023-09-08T03:03:16.984Z,12.23
2023-09-08T03:05:48.054Z,9.50
2023-09-08T03:08:17.618Z,9.10
2023-09-08T03:10:49.473Z,12.23
2023-09-08T03:13:18.201Z,8.97
2023-09-08T03:15:48.535Z,10.13
2023-09-08T03:18:19.223Z,8.40
2023-09-08T03:20:50.728Z,10.67
2023-09-08T03:23:19.011Z,10.50
2023-09-08T03:25:49.987Z,10.03
2023-09-08T03:28:18.169Z,9.47
2023-09-08T03:30:50.606Z,15.87
2023-09-08T03:33:21.674Z,10.27
2023-09-08T03:35:49.573Z,13.13
2023-09-08T03:38:19.838Z,10.57
2023-09-08T03:40:48.998Z,9.07
2023-09-08T03:43:17.199Z,9.70
2023-09-08T03:45:46.244Z,10.07
2023-09-08T03:48:15.031Z,9.93
2023-09-08T03:50:51.657Z,9.73
2023-09-08T03:53:22.611Z,10.17
2023-09-08T03:55:51.182Z,9.57
2023-09-08T03:58:20.165Z,9.33
2023-09-08T04:00:58.882Z,9.67
2023-09-08T04:03:27.857Z,13.83
2023-09-08T04:05:57.782Z,9.43
2023-09-08T04:08:27.083Z,12.07
2023-09-08T04:11:03.710Z,12.33
2023-09-08T04:13:33.824Z,14.07
2023-09-08T04:16:04.771Z,11.27
2023-09-08T04:18:36.198Z,10.47
2023-09-08T04:21:08.985Z,15.30
2023-09-08T04:23:37.412Z,12.63
2023-09-08T04:26:05.673Z,12.50
2023-09-08T04:28:33.605Z,12.47
2023-09-08T04:31:01.786Z,9.60
2023-09-08T04:33:31.310Z,11.60
2023-09-08T04:35:59.478Z,11.10
2023-09-08T04:38:28.904Z,8.47
2023-09-08T04:40:56.733Z,10.10
2023-09-08T04:43:31.268Z,9.17
2023-09-08T04:45:59.760Z,14.60
2023-09-08T04:48:31.154Z,13.43
2023-09-08T04:51:03.576Z,18.20
2023-09-08T04:53:36.292Z,16.87
2023-09-08T04:56:04.640Z,24.90
2023-09-08T04:58:33.393Z,15.27
2023-09-08T05:01:01.685Z,23.23
2023-09-08T05:03:31.991Z,17.67
2023-09-08T05:06:06.336Z,13.33
2023-09-08T05:08:36.409Z,9.50
2023-09-08T05:11:05.669Z,15.37
2023-09-08T05:13:36.789Z,15.70
2023-09-08T05:16:12.799Z,17.13
2023-09-08T05:18:41.237Z,13.53
2023-09-08T05:21:13.837Z,15.43
2023-09-08T05:23:44.262Z,15.07
2023-09-08T05:26:15.008Z,14.53
2023-09-08T05:28:45.330Z,13.53
2023-09-08T05:31:13.815Z,17.47
2023-09-08T05:33:43.012Z,9.00
2023-09-08T05:36:12.839Z,8.60
2023-09-08T05:38:44.610Z,12.93
2023-09-08T05:41:17.240Z,10.10
2023-09-08T05:43:46.850Z,14.03
2023-09-08T05:46:14.940Z,11.10
2023-09-08T05:48:44.328Z,14.00
2023-09-08T05:51:12.525Z,13.10
2023-09-08T05:53:41.953Z,10.67
2023-09-08T05:56:13.666Z,13.67
2023-09-08T05:58:41.578Z,12.17
2023-09-08T06:01:09.954Z,17.27
2023-09-08T06:03:39.460Z,11.90
2023-09-08T06:06:07.980Z,16.93
2023-09-08T06:08:36.431Z,18.40
2023-09-08T06:11:04.895Z,14.70
2023-09-08T06:13:34.424Z,9.37
2023-09-08T06:16:03.460Z,10.53
2023-09-08T06:18:32.935Z,11.13
2023-09-08T06:21:01.697Z,10.00
2023-09-08T06:23:31.441Z,13.60
2023-09-08T06:26:01.346Z,11.60
2023-09-08T06:28:29.771Z,7.97
2023-09-08T06:31:03.464Z,8.50
2023-09-08T06:33:31.420Z,11.73
2023-09-08T06:36:00.817Z,12.73
2023-09-08T06:38:32.326Z,12.87
2023-09-08T06:41:02.175Z,14.17
2023-09-08T06:43:30.502Z,8.17
2023-09-08T06:45:59.233Z,8.43
2023-09-08T06:48:29.283Z,9.00
2023-09-08T06:50:58.101Z,9.77
2023-09-08T06:53:26.294Z,8.60
2023-09-08T06:55:57.367Z,7.23
2023-09-08T06:58:25.500Z,9.73
2023-09-08T07:00:55.850Z,9.80
2023-09-08T07:03:24.880Z,10.30
2023-09-08T07:05:59.466Z,9.80
2023-09-08T07:08:29.262Z,10.73
2023-09-08T07:10:59.008Z,8.73
2023-09-08T07:13:28.200Z,12.30
2023-09-08T07:15:58.969Z,10.67
2023-09-08T07:18:27.926Z,8.07
2023-09-08T07:20:57.497Z,8.13
2023-09-08T07:23:27.917Z,9.87
2023-09-08T07:25:57.323Z,9.00
2023-09-08T07:28:28.353Z,9.50
2023-09-08T07:31:06.817Z,8.13
2023-09-08T07:33:36.335Z,11.40
2023-09-08T07:36:10.639Z,11.23
2023-09-08T07:38:39.130Z,12.90
2023-09-08T07:41:07.562Z,9.53
2023-09-08T07:43:41.524Z,7.67
2023-09-08T07:46:09.721Z,11.13
2023-09-08T07:48:38.263Z,8.77
2023-09-08T07:51:08.261Z,6.27
2023-09-08T07:53:37.679Z,8.33
2023-09-08T07:56:06.488Z,9.53
2023-09-08T07:58:36.151Z,7.87
2023-09-08T08:01:04.751Z,7.30
2023-09-08T08:03:33.478Z,7.60
2023-09-08T08:06:02.420Z,10.53
2023-09-08T08:08:32.458Z,12.43
2023-09-08T08:11:02.617Z,7.30
2023-09-08T08:13:34.439Z,5.90
2023-09-08T08:16:03.560Z,8.77
2023-09-08T08:18:32.010Z,10.07
2023-09-08T08:21:04.795Z,8.57
2023-09-08T08:23:35.246Z,8.63
2023-09-08T08:26:05.522Z,6.23
2023-09-08T08:28:33.790Z,10.60
2023-09-08T08:31:03.729Z,7.33
2023-09-08T08:33:34.617Z,9.50
2023-09-08T08:36:04.987Z,13.70
2023-09-08T08:38:39.720Z,9.70
2023-09-08T08:41:08.660Z,12.67
2023-09-08T08:43:38.056Z,11.17
2023-09-08T08:46:11.669Z,10.97
2023-09-08T08:48:41.318Z,8.80
2023-09-08T08:51:11.498Z,7.13
2023-09-08T08:53:43.712Z,8.27
2023-09-08T08:56:15.106Z,7.80
2023-09-08T08:58:44.556Z,11.27
2023-09-08T09:01:17.260Z,7.37
2023-09-08T09:03:46.518Z,7.55
2023-09-08T09:06:15.798Z,8.77
2023-09-08T09:08:51.644Z,11.33
2023-09-08T09:11:22.330Z,9.15
2023-09-08T09:13:50.254Z,7.38
2023-09-08T09:16:18.202Z,8.70
2023-09-08T09:19:08.227Z,6.60
2023-09-08T09:21:48.533Z,5.30
2023-09-08T09:24:20.952Z,5.93
2023-09-08T09:26:55.315Z,8.20
2023-09-08T09:29:24.350Z,7.90
2023-09-08T09:31:55.306Z,8.48
2023-09-08T09:34:24.278Z,4.60
2023-09-08T09:36:53.327Z,8.48
2023-09-08T09:39:30.061Z,7.80
2023-09-08T09:42:01.145Z,5.53
2023-09-08T09:44:30.221Z,6.70
2023-09-08T09:47:00.395Z,6.50
2023-09-08T09:49:33.197Z,6.47
2023-09-08T09:52:01.724Z,7.55
2023-09-08T09:54:31.850Z,6.15
2023-09-08T09:57:04.665Z,6.18
2023-09-08T09:59:35.584Z,6.18
2023-09-08T10:02:04.150Z,11.25
2023-09-08T10:07:28.023Z,6.07
2023-09-08T10:09:59.022Z,7.68
2023-09-08T10:12:38.222Z,6.93
2023-09-08T10:15:09.134Z,5.80
2023-09-08T10:17:40.694Z,7.18
2023-09-08T10:20:12.580Z,8.75
2023-09-08T10:22:43.621Z,8.88
2023-09-08T10:25:17.050Z,8.57
2023-09-08T10:27:51.681Z,6.78
2023-09-08T10:30:23.767Z,5.10
2023-09-08T10:32:54.534Z,6.15
2023-09-08T10:35:26.184Z,6.68
2023-09-08T10:38:29.321Z,6.00
2023-09-08T10:41:33.646Z,7.65
2023-09-08T10:44:10.374Z,6.13
2023-09-08T10:46:39.580Z,6.80
2023-09-08T10:49:11.376Z,4.88
2023-09-08T10:51:40.971Z,7.20
2023-09-08T10:54:11.638Z,6.35
2023-09-08T11:42:17.372Z,5.35
2023-09-08T11:45:02.744Z,7.05
2023-09-08T11:47:37.470Z,6.18
2023-09-08T11:56:29.872Z,5.13
2023-09-08T11:59:17.498Z,7.20
2023-09-08T12:05:24.072Z,7.35
2023-09-08T12:08:14.002Z,5.88
2023-09-08T12:13:52.303Z,5.68
2023-09-08T12:16:21.899Z,6.50
2023-09-08T12:18:52.818Z,7.35
2023-09-08T12:21:23.119Z,4.20
2023-09-08T12:23:51.855Z,5.65
2023-09-08T12:26:20.704Z,6.78
2023-09-08T12:28:53.291Z,5.93
2023-09-08T12:31:30.207Z,9.50
2023-09-08T12:33:59.822Z,8.68
2023-09-08T12:36:27.939Z,4.40
2023-09-08T12:39:01.689Z,5.28
2023-09-08T12:41:29.736Z,5.50
2023-09-08T12:43:59.540Z,7.47
2023-09-08T12:46:28.392Z,4.47
2023-09-08T12:48:58.972Z,6.10
2023-09-08T13:09:52.179Z,6.20
2023-09-08T14:15:10.117Z,7.68
2023-09-08T14:17:38.085Z,7.57
2023-09-08T14:20:13.944Z,10.27
2023-09-08T14:22:46.114Z,4.18
2023-09-08T14:25:47.340Z,4.30
2023-09-08T14:28:16.881Z,4.18
2023-09-08T14:30:47.995Z,4.38
2023-09-08T14:33:17.179Z,3.33
2023-09-08T14:35:47.120Z,5.95
2023-09-08T14:38:19.433Z,3.95
2023-09-08T14:40:56.773Z,4.35
2023-09-08T14:43:31.470Z,7.13
2023-09-08T14:46:04.138Z,3.72
2023-09-08T14:48:33.768Z,8.10
2023-09-08T14:51:03.477Z,4.35
2023-09-08T14:53:37.487Z,7.07
2023-09-08T14:56:11.911Z,5.43
2023-09-08T14:58:42.212Z,5.15
2023-09-08T15:01:10.233Z,4.13
2023-09-08T15:03:41.496Z,5.20
2023-09-08T15:06:13.618Z,5.90
2023-09-08T15:08:46.726Z,4.80
2023-09-08T15:11:16.458Z,6.30
2023-09-08T15:13:44.404Z,3.80
2023-09-08T15:16:15.857Z,4.25
2023-09-08T15:18:44.419Z,6.50
2023-09-08T15:21:13.163Z,3.45
2023-09-08T15:23:43.588Z,3.75
2023-09-08T15:26:13.732Z,5.68
2023-09-08T15:28:43.343Z,4.28
2023-09-08T15:31:12.147Z,3.72
2023-09-08T15:33:40.456Z,5.22
2023-09-08T15:36:09.454Z,7.00
2023-09-08T15:41:23.330Z,5.50
2023-09-08T15:43:58.105Z,4.90
2023-09-08T15:46:28.578Z,7.03
2023-09-08T15:48:57.981Z,7.53
2023-09-08T15:51:27.546Z,7.57
2023-09-08T15:53:57.241Z,6.63
2023-09-08T15:56:29.747Z,6.78
2023-09-08T15:59:02.230Z,4.93
2023-09-08T16:01:30.297Z,4.05
2023-09-08T16:04:00.062Z,3.88
2023-09-08T16:06:29.982Z,6.20
2023-09-08T16:08:59.272Z,4.78
2023-09-08T16:11:31.003Z,5.47
2023-09-08T16:14:01.003Z,6.28
2023-09-08T16:16:31.008Z,8.52
2023-09-08T16:19:00.913Z,4.93
2023-09-08T16:21:30.253Z,6.65
2023-09-08T16:23:58.545Z,6.82
2023-09-08T16:26:29.824Z,6.82
2023-09-08T16:29:02.687Z,11.73
2023-09-08T16:31:31.198Z,5.25
2023-09-08T16:33:59.662Z,8.10
2023-09-08T16:36:30.817Z,7.95
2023-09-08T16:39:10.895Z,6.15
2023-09-08T16:41:40.402Z,4.80
2023-09-08T16:44:14.680Z,6.68
2023-09-08T16:46:44.504Z,5.97
2023-09-08T16:49:15.868Z,4.97
2023-09-08T16:51:43.999Z,5.55
2023-09-08T16:54:14.675Z,8.07
2023-09-08T16:56:45.656Z,6.55
2023-09-08T16:59:22.049Z,8.25
2023-09-08T17:01:51.785Z,5.03
2023-09-08T17:04:20.267Z,5.68
2023-09-08T17:06:50.167Z,5.95
2023-09-08T17:09:23.852Z,4.57
2023-09-08T17:11:52.426Z,8.07
2023-09-08T17:14:23.592Z,4.85
2023-09-08T17:16:53.193Z,6.88
2023-09-08T17:19:22.900Z,8.32
2023-09-08T17:21:53.213Z,8.10
2023-09-08T17:24:22.581Z,6.13
2023-09-08T17:26:54.897Z,7.28
2023-09-08T17:29:26.679Z,6.85
2023-09-08T17:31:55.959Z,9.52
2023-09-08T17:34:24.160Z,8.38
2023-09-08T17:36:57.214Z,9.07
2023-09-08T17:39:27.018Z,11.65
2023-09-08T17:41:57.457Z,7.47
2023-09-08T17:44:28.699Z,8.18
2023-09-08T17:47:03.752Z,9.88
2023-09-08T17:49:32.490Z,13.70
2023-09-08T17:52:04.685Z,7.47
2023-09-08T17:54:35.066Z,11.55
2023-09-08T17:57:03.377Z,8.50
2023-09-08T17:59:33.484Z,7.32
2023-09-08T18:02:01.941Z,7.68
2023-09-08T18:04:33.454Z,12.73
2023-09-08T18:07:01.516Z,9.40
2023-09-08T18:09:30.017Z,9.20
2023-09-08T18:11:59.764Z,8.18
2023-09-08T18:14:33.766Z,14.13
2023-09-08T18:17:05.829Z,10.75
2023-09-08T18:19:36.849Z,10.75
2023-09-08T18:22:07.579Z,9.60
2023-09-08T18:24:36.187Z,12.17
2023-09-08T18:27:06.059Z,11.47
2023-09-08T18:29:35.938Z,7.80
2023-09-08T18:32:06.024Z,7.90
2023-09-08T18:34:36.759Z,7.88
2023-09-08T18:37:05.331Z,9.88
2023-09-08T18:39:34.515Z,10.73
2023-09-08T18:42:02.986Z,11.18
2023-09-08T18:44:31.488Z,6.97
2023-09-08T18:47:03.534Z,10.00
2023-09-08T18:49:31.990Z,9.80
2023-09-08T18:52:03.608Z,13.63
2023-09-08T18:54:35.148Z,8.67
2023-09-08T18:57:09.045Z,12.93
2023-09-08T18:59:45.372Z,14.03
2023-09-08T19:02:15.110Z,13.73
2023-09-08T19:04:43.424Z,15.93
2023-09-08T19:07:12.850Z,12.23
2023-09-08T19:09:42.308Z,16.97
2023-09-08T19:12:12.702Z,16.33
2023-09-08T19:14:40.647Z,17.47
2023-09-08T19:17:09.345Z,20.90
2023-09-08T19:19:38.832Z,14.50
2023-09-08T19:22:11.449Z,21.43
2023-09-08T19:24:39.572Z,15.83
2023-09-08T19:27:08.309Z,16.73
2023-09-08T19:29:36.660Z,16.57
2023-09-08T19:32:04.934Z,20.77
2023-09-08T19:34:39.680Z,22.10
2023-09-08T19:37:09.070Z,23.83
2023-09-08T19:39:38.448Z,22.87
2023-09-08T19:42:07.602Z,24.60
2023-09-08T19:44:41.392Z,23.57
2023-09-08T19:47:16.126Z,22.47
2023-09-08T19:49:51.852Z,24.27
2023-09-08T19:52:20.569Z,20.70
2023-09-08T19:54:49.410Z,22.43
2023-09-08T19:57:17.858Z,24.03
2023-09-08T19:59:48.357Z,24.13
2023-09-08T20:02:17.142Z,26.70
2023-09-08T20:04:54.300Z,23.90
2023-09-08T20:07:22.634Z,26.90
2023-09-08T20:09:52.450Z,32.20
2023-09-08T20:12:25.164Z,31.63
2023-09-08T20:14:57.067Z,30.23
2023-09-08T20:17:28.800Z,29.67
2023-09-08T20:20:06.826Z,31.27
2023-09-08T20:22:40.481Z,31.57
2023-09-08T20:25:13.671Z,32.97
2023-09-08T20:27:45.671Z,32.33
2023-09-08T20:30:16.556Z,31.50
2023-09-08T20:32:52.441Z,24.63
2023-09-08T20:35:23.827Z,26.90
2023-09-08T20:37:54.376Z,24.27
2023-09-08T20:40:23.171Z,21.80
2023-09-08T20:42:51.653Z,18.63
2023-09-08T20:45:21.441Z,20.80
2023-09-08T20:48:02.492Z,20.13
2023-09-08T20:50:32.268Z,21.93
2023-09-08T20:53:07.969Z,17.90
2023-09-08T20:56:00.326Z,19.07
2023-09-08T20:58:49.072Z,17.30
2023-09-08T21:01:17.661Z,18.60
2023-09-08T21:03:49.345Z,18.67
2023-09-08T21:06:27.076Z,17.50
2023-09-08T21:09:06.381Z,23.40
2023-09-08T21:11:34.498Z,17.60
2023-09-08T21:14:02.879Z,20.60
2023-09-08T21:16:31.174Z,19.67
2023-09-08T21:19:00.363Z,20.43
2023-09-08T21:21:30.549Z,19.00
2023-09-08T21:23:58.825Z,18.70
2023-09-08T21:26:26.979Z,17.80
2023-09-08T21:28:55.623Z,18.17
2023-09-08T21:31:24.240Z,19.00
2023-09-08T21:33:54.932Z,20.83
2023-09-08T21:36:23.261Z,24.27
2023-09-08T21:38:56.981Z,20.47
2023-09-08T21:41:27.472Z,28.70
2023-09-08T21:43:59.066Z,24.13
2023-09-08T21:46:27.188Z,26.93
2023-09-08T21:48:56.690Z,28.43
2023-09-08T21:51:27.685Z,32.33
2023-09-08T21:53:58.042Z,51.93
2023-09-08T21:56:26.566Z,59.73
2023-09-08T22:01:53.961Z,59.20
2023-09-08T22:04:36.326Z,64.23
2023-09-08T22:07:04.826Z,77.27
2023-09-08T22:09:34.021Z,59.80
2023-09-08T22:12:04.167Z,46.73
2023-09-08T22:14:37.035Z,40.03
2023-09-08T22:17:06.481Z,44.13
2023-09-08T22:19:35.774Z,36.27
2023-09-08T22:22:11.445Z,36.13
2023-09-08T22:24:43.702Z,35.43
2023-09-08T22:27:12.590Z,35.87
2023-09-08T22:29:42.364Z,53.70
2023-09-08T22:32:10.311Z,43.67
2023-09-08T22:34:40.047Z,38.67
2023-09-08T22:37:10.070Z,34.67
2023-09-08T22:39:39.370Z,31.57
2023-09-08T22:42:09.549Z,34.70
2023-09-08T22:44:37.449Z,35.70
2023-09-08T22:47:12.031Z,32.90
2023-09-08T22:49:59.763Z,32.73
2023-09-08T22:52:29.219Z,26.27
2023-09-08T22:55:05.763Z,26.87
2023-09-08T22:57:44.440Z,26.37
2023-09-08T23:00:14.222Z,24.17
2023-09-08T23:02:44.009Z,27.17
2023-09-08T23:05:12.619Z,24.97
2023-09-08T23:07:41.391Z,24.80
2023-09-08T23:10:11.322Z,22.17
2023-09-08T23:12:39.446Z,19.93
2023-09-08T23:15:11.486Z,19.40
2023-09-08T23:17:39.932Z,24.30
2023-09-08T23:20:09.182Z,20.07
2023-09-08T23:22:40.923Z,18.93
2023-09-08T23:25:11.182Z,19.80
2023-09-08T23:27:42.700Z,20.33
2023-09-08T23:30:13.680Z,18.73
2023-09-08T23:32:45.749Z,18.73
2023-09-08T23:35:20.004Z,18.77
2023-09-08T23:37:53.196Z,17.87
2023-09-08T23:40:22.369Z,17.53
2023-09-08T23:42:50.841Z,17.63
2023-09-08T23:45:20.576Z,15.67
2023-09-08T23:47:49.823Z,16.37
2023-09-08T23:50:18.814Z,17.77
2023-09-08T23:52:47.760Z,16.80
2023-09-08T23:55:16.930Z,21.67
2023-09-08T23:57:46.029Z,16.53
